sensor_id;sensor_type;location;lat;lon;timestamp;pressure;altitude;pressure_sealevel;temperature;humidity
25869;BME280;13688;53.154;18.136;2024-01-25T00:02:26;99842.27;;;5.29;100.00
25869;BME280;13688;53.154;18.136;2024-01-25T00:07:55;99871.81;;;5.26;100.00
25869;BME280;13688;53.154;18.136;2024-01-25T00:13:17;99864.78;;;5.25;100.00
25869;BME280;13688;53.154;18.136;2024-01-25T00:18:39;99861.89;;;5.28;100.00
25869;BME280;13688;53.154;18.136;2024-01-25T00:24:02;99869.67;;;5.18;100.00
25869;BME280;13688;53.154;18.136;2024-01-25T00:29:26;99872.67;;;5.13;100.00
25869;BME280;13688;53.154;18.136;2024-01-25T00:34:50;99883.73;;;5.07;100.00
25869;BME280;13688;53.154;18.136;2024-01-25T00:40:14;99885.77;;;5.04;100.00
25869;BME280;13688;53.154;18.136;2024-01-25T00:45:37;99939.05;;;5.04;100.00
25869;BME280;13688;53.154;18.136;2024-01-25T00:51:00;99908.78;;;5.05;100.00
25869;BME280;13688;53.154;18.136;2024-01-25T00:56:23;99900.90;;;5.03;100.00
25869;BME280;13688;53.154;18.136;2024-01-25T01:01:48;99910.70;;;5.03;100.00
25869;BME280;13688;53.154;18.136;2024-01-25T01:07:13;99944.48;;;5.02;100.00
25869;BME280;13688;53.154;18.136;2024-01-25T01:12:36;99912.19;;;5.07;100.00
25869;BME280;13688;53.154;18.136;2024-01-25T01:18:00;99882.99;;;5.05;100.00
25869;BME280;13688;53.154;18.136;2024-01-25T01:23:23;99917.73;;;5.04;100.00
25869;BME280;13688;53.154;18.136;2024-01-25T01:28:45;99910.94;;;5.12;100.00
25869;BME280;13688;53.154;18.136;2024-01-25T01:34:08;99900.35;;;5.11;100.00
25869;BME280;13688;53.154;18.136;2024-01-25T01:39:31;99896.95;;;5.09;100.00
25869;BME280;13688;53.154;18.136;2024-01-25T01:44:56;99872.11;;;5.08;100.00
25869;BME280;13688;53.154;18.136;2024-01-25T01:50:18;99874.89;;;5.07;100.00
25869;BME280;13688;53.154;18.136;2024-01-25T01:55:42;99881.17;;;5.06;100.00
25869;BME280;13688;53.154;18.136;2024-01-25T02:01:05;99880.84;;;5.10;100.00
25869;BME280;13688;53.154;18.136;2024-01-25T02:06:32;99917.00;;;5.14;100.00
25869;BME280;13688;53.154;18.136;2024-01-25T02:12:00;99878.00;;;5.13;100.00
25869;BME280;13688;53.154;18.136;2024-01-25T02:17:23;99888.77;;;5.12;100.00
25869;BME280;13688;53.154;18.136;2024-01-25T02:22:46;99910.48;;;5.06;100.00
25869;BME280;13688;53.154;18.136;2024-01-25T02:28:09;99871.59;;;5.03;100.00
25869;BME280;13688;53.154;18.136;2024-01-25T02:33:32;99956.18;;;5.00;100.00
25869;BME280;13688;53.154;18.136;2024-01-25T02:38:55;99923.36;;;4.99;100.00
25869;BME280;13688;53.154;18.136;2024-01-25T02:44:17;99943.71;;;5.00;100.00
25869;BME280;13688;53.154;18.136;2024-01-25T02:49:40;99894.80;;;5.01;100.00
25869;BME280;13688;53.154;18.136;2024-01-25T02:55:02;99902.05;;;4.99;100.00
25869;BME280;13688;53.154;18.136;2024-01-25T03:00:26;99900.34;;;4.98;100.00
25869;BME280;13688;53.154;18.136;2024-01-25T03:05:50;99886.17;;;4.98;100.00
25869;BME280;13688;53.154;18.136;2024-01-25T03:11:13;99892.67;;;4.94;100.00
25869;BME280;13688;53.154;18.136;2024-01-25T03:16:36;99929.52;;;4.87;100.00
25869;BME280;13688;53.154;18.136;2024-01-25T03:21:59;99924.16;;;4.74;100.00
25869;BME280;13688;53.154;18.136;2024-01-25T03:27:22;99928.17;;;4.67;100.00
25869;BME280;13688;53.154;18.136;2024-01-25T03:32:45;99982.78;;;4.60;100.00
25869;BME280;13688;53.154;18.136;2024-01-25T03:38:09;99985.16;;;4.65;100.00
25869;BME280;13688;53.154;18.136;2024-01-25T03:43:32;99982.88;;;4.58;100.00
25869;BME280;13688;53.154;18.136;2024-01-25T03:48:55;99968.25;;;4.51;100.00
25869;BME280;13688;53.154;18.136;2024-01-25T03:54:17;99988.25;;;4.44;100.00
25869;BME280;13688;53.154;18.136;2024-01-25T03:59:41;99999.18;;;4.40;100.00
25869;BME280;13688;53.154;18.136;2024-01-25T04:05:04;100030.64;;;4.33;100.00
25869;BME280;13688;53.154;18.136;2024-01-25T04:10:26;99994.55;;;4.29;100.00
25869;BME280;13688;53.154;18.136;2024-01-25T04:15:49;99985.60;;;4.30;100.00
25869;BME280;13688;53.154;18.136;2024-01-25T04:21:11;99987.52;;;4.28;100.00
25869;BME280;13688;53.154;18.136;2024-01-25T04:26:34;99987.04;;;4.21;100.00
25869;BME280;13688;53.154;18.136;2024-01-25T04:31:58;100046.33;;;4.23;100.00
25869;BME280;13688;53.154;18.136;2024-01-25T04:37:21;100010.88;;;4.23;100.00
25869;BME280;13688;53.154;18.136;2024-01-25T04:42:44;100015.66;;;4.18;100.00
25869;BME280;13688;53.154;18.136;2024-01-25T04:48:06;100045.58;;;4.21;100.00
25869;BME280;13688;53.154;18.136;2024-01-25T04:53:29;100022.48;;;4.22;100.00
25869;BME280;13688;53.154;18.136;2024-01-25T04:58:52;100035.79;;;4.22;100.00
25869;BME280;13688;53.154;18.136;2024-01-25T05:04:15;100041.96;;;4.22;100.00
25869;BME280;13688;53.154;18.136;2024-01-25T05:09:40;100034.83;;;4.23;100.00
25869;BME280;13688;53.154;18.136;2024-01-25T05:15:02;100038.45;;;4.22;100.00
25869;BME280;13688;53.154;18.136;2024-01-25T05:20:25;100050.80;;;4.23;100.00
25869;BME280;13688;53.154;18.136;2024-01-25T05:25:47;100040.05;;;4.24;100.00
25869;BME280;13688;53.154;18.136;2024-01-25T05:31:10;100069.26;;;4.26;100.00
25869;BME280;13688;53.154;18.136;2024-01-25T05:36:32;100062.88;;;4.28;100.00
25869;BME280;13688;53.154;18.136;2024-01-25T05:41:55;100059.06;;;4.33;100.00
25869;BME280;13688;53.154;18.136;2024-01-25T05:47:18;100058.20;;;4.32;100.00
25869;BME280;13688;53.154;18.136;2024-01-25T05:52:41;100060.50;;;4.38;100.00
25869;BME280;13688;53.154;18.136;2024-01-25T05:58:04;100062.11;;;4.41;100.00
25869;BME280;13688;53.154;18.136;2024-01-25T06:03:27;100064.56;;;4.44;100.00
25869;BME280;13688;53.154;18.136;2024-01-25T06:08:49;100070.67;;;4.46;100.00
25869;BME280;13688;53.154;18.136;2024-01-25T06:14:15;100075.89;;;4.47;100.00
25869;BME280;13688;53.154;18.136;2024-01-25T06:19:37;100045.45;;;4.51;100.00
25869;BME280;13688;53.154;18.136;2024-01-25T06:25:00;100077.23;;;4.54;100.00
25869;BME280;13688;53.154;18.136;2024-01-25T06:30:23;100084.91;;;4.59;100.00
25869;BME280;13688;53.154;18.136;2024-01-25T06:35:45;100072.07;;;4.66;100.00
25869;BME280;13688;53.154;18.136;2024-01-25T06:41:08;100074.73;;;4.66;100.00
25869;BME280;13688;53.154;18.136;2024-01-25T06:46:32;100073.57;;;4.70;100.00
25869;BME280;13688;53.154;18.136;2024-01-25T06:51:54;100110.20;;;4.66;100.00
25869;BME280;13688;53.154;18.136;2024-01-25T06:57:16;100101.26;;;4.67;100.00
25869;BME280;13688;53.154;18.136;2024-01-25T07:02:39;100116.28;;;4.68;100.00
25869;BME280;13688;53.154;18.136;2024-01-25T07:08:02;100134.82;;;4.70;100.00
25869;BME280;13688;53.154;18.136;2024-01-25T07:13:25;100150.70;;;4.71;100.00
25869;BME280;13688;53.154;18.136;2024-01-25T07:18:49;100172.95;;;4.70;100.00
25869;BME280;13688;53.154;18.136;2024-01-25T07:24:13;100188.08;;;4.70;100.00
25869;BME280;13688;53.154;18.136;2024-01-25T07:29:36;100206.06;;;4.66;100.00
25869;BME280;13688;53.154;18.136;2024-01-25T07:35:00;100197.48;;;4.61;100.00
25869;BME280;13688;53.154;18.136;2024-01-25T07:40:22;100212.81;;;4.57;100.00
25869;BME280;13688;53.154;18.136;2024-01-25T07:45:45;100226.31;;;4.54;100.00
25869;BME280;13688;53.154;18.136;2024-01-25T07:51:11;100237.63;;;4.58;100.00
25869;BME280;13688;53.154;18.136;2024-01-25T07:56:35;100264.05;;;4.61;100.00
25869;BME280;13688;53.154;18.136;2024-01-25T08:01:57;100263.80;;;4.66;100.00
25869;BME280;13688;53.154;18.136;2024-01-25T08:07:20;100257.52;;;4.67;100.00
25869;BME280;13688;53.154;18.136;2024-01-25T08:12:44;100275.77;;;4.73;100.00
25869;BME280;13688;53.154;18.136;2024-01-25T08:18:10;100269.22;;;4.78;100.00
25869;BME280;13688;53.154;18.136;2024-01-25T08:23:37;100293.85;;;4.82;100.00
25869;BME280;13688;53.154;18.136;2024-01-25T08:29:00;100298.81;;;4.88;100.00
25869;BME280;13688;53.154;18.136;2024-01-25T08:34:23;100305.00;;;4.88;100.00
25869;BME280;13688;53.154;18.136;2024-01-25T08:39:45;100313.48;;;4.95;100.00
25869;BME280;13688;53.154;18.136;2024-01-25T08:45:08;100323.00;;;4.99;100.00
25869;BME280;13688;53.154;18.136;2024-01-25T08:50:31;100345.86;;;5.03;100.00
25869;BME280;13688;53.154;18.136;2024-01-25T08:55:55;100348.42;;;5.05;100.00
25869;BME280;13688;53.154;18.136;2024-01-25T09:01:17;100346.61;;;5.05;100.00
25869;BME280;13688;53.154;18.136;2024-01-25T09:06:40;100350.62;;;5.12;100.00
25869;BME280;13688;53.154;18.136;2024-01-25T09:12:02;100387.14;;;5.10;100.00
25869;BME280;13688;53.154;18.136;2024-01-25T09:17:26;100384.31;;;5.13;100.00
25869;BME280;13688;53.154;18.136;2024-01-25T09:22:49;100392.12;;;5.16;100.00
25869;BME280;13688;53.154;18.136;2024-01-25T09:28:12;100399.06;;;5.19;100.00
25869;BME280;13688;53.154;18.136;2024-01-25T09:33:34;100416.70;;;5.22;100.00
25869;BME280;13688;53.154;18.136;2024-01-25T09:38:58;100424.50;;;5.25;100.00
25869;BME280;13688;53.154;18.136;2024-01-25T09:44:21;100444.87;;;5.26;100.00
25869;BME280;13688;53.154;18.136;2024-01-25T09:49:44;100462.17;;;5.18;100.00
25869;BME280;13688;53.154;18.136;2024-01-25T09:55:07;100466.33;;;5.08;100.00
25869;BME280;13688;53.154;18.136;2024-01-25T10:00:30;100472.20;;;4.99;100.00
25869;BME280;13688;53.154;18.136;2024-01-25T10:05:53;100472.58;;;4.93;100.00
25869;BME280;13688;53.154;18.136;2024-01-25T10:11:18;100478.83;;;4.92;100.00
25869;BME280;13688;53.154;18.136;2024-01-25T10:16:47;100497.66;;;4.89;100.00
25869;BME280;13688;53.154;18.136;2024-01-25T10:22:11;100492.84;;;4.96;100.00
25869;BME280;13688;53.154;18.136;2024-01-25T10:27:34;100499.55;;;5.03;100.00
25869;BME280;13688;53.154;18.136;2024-01-25T10:32:59;100499.27;;;5.07;100.00
25869;BME280;13688;53.154;18.136;2024-01-25T10:38:24;100507.92;;;5.11;100.00
25869;BME280;13688;53.154;18.136;2024-01-25T10:43:48;100531.15;;;5.09;100.00
25869;BME280;13688;53.154;18.136;2024-01-25T10:49:13;100525.72;;;5.10;100.00
25869;BME280;13688;53.154;18.136;2024-01-25T10:54:37;100535.27;;;5.14;100.00
25869;BME280;13688;53.154;18.136;2024-01-25T11:00:00;100545.17;;;5.12;100.00
25869;BME280;13688;53.154;18.136;2024-01-25T11:05:24;100540.00;;;5.09;100.00
25869;BME280;13688;53.154;18.136;2024-01-25T11:10:50;100551.70;;;5.07;100.00
25869;BME280;13688;53.154;18.136;2024-01-25T11:16:15;100557.22;;;5.04;100.00
25869;BME280;13688;53.154;18.136;2024-01-25T11:21:53;100555.75;;;4.98;100.00
25869;BME280;13688;53.154;18.136;2024-01-25T11:27:17;100571.83;;;4.97;100.00
25869;BME280;13688;53.154;18.136;2024-01-25T11:32:40;100593.91;;;4.99;100.00
25869;BME280;13688;53.154;18.136;2024-01-25T11:38:04;100602.77;;;4.99;100.00
25869;BME280;13688;53.154;18.136;2024-01-25T11:43:27;100609.80;;;5.00;100.00
25869;BME280;13688;53.154;18.136;2024-01-25T11:48:51;100613.27;;;5.02;100.00
25869;BME280;13688;53.154;18.136;2024-01-25T11:54:14;100630.11;;;5.03;100.00
25869;BME280;13688;53.154;18.136;2024-01-25T11:59:37;100644.63;;;4.97;100.00
25869;BME280;13688;53.154;18.136;2024-01-25T12:05:02;100643.95;;;4.94;100.00
25869;BME280;13688;53.154;18.136;2024-01-25T12:10:27;100653.13;;;4.88;100.00
25869;BME280;13688;53.154;18.136;2024-01-25T12:15:52;100666.36;;;4.74;100.00
25869;BME280;13688;53.154;18.136;2024-01-25T12:21:16;100674.76;;;4.66;100.00
25869;BME280;13688;53.154;18.136;2024-01-25T12:26:43;100686.94;;;4.54;100.00
25869;BME280;13688;53.154;18.136;2024-01-25T12:32:05;100688.28;;;4.46;100.00
25869;BME280;13688;53.154;18.136;2024-01-25T12:37:28;100695.55;;;4.42;100.00
25869;BME280;13688;53.154;18.136;2024-01-25T12:42:51;100713.10;;;4.46;100.00
25869;BME280;13688;53.154;18.136;2024-01-25T12:48:14;100717.02;;;4.39;100.00
25869;BME280;13688;53.154;18.136;2024-01-25T12:53:38;100734.10;;;4.35;100.00
25869;BME280;13688;53.154;18.136;2024-01-25T12:59:01;100751.31;;;4.28;100.00
25869;BME280;13688;53.154;18.136;2024-01-25T13:04:24;100753.90;;;4.29;100.00
25869;BME280;13688;53.154;18.136;2024-01-25T13:09:50;100762.99;;;4.25;100.00
25869;BME280;13688;53.154;18.136;2024-01-25T13:15:15;100767.45;;;4.25;100.00
25869;BME280;13688;53.154;18.136;2024-01-25T13:20:38;100771.97;;;4.23;100.00
25869;BME280;13688;53.154;18.136;2024-01-25T13:26:01;100779.17;;;4.21;100.00
25869;BME280;13688;53.154;18.136;2024-01-25T13:31:24;100789.98;;;4.18;100.00
25869;BME280;13688;53.154;18.136;2024-01-25T13:36:47;100812.05;;;4.20;100.00
25869;BME280;13688;53.154;18.136;2024-01-25T13:42:10;100821.14;;;4.16;100.00
25869;BME280;13688;53.154;18.136;2024-01-25T13:47:33;100836.00;;;3.65;100.00
25869;BME280;13688;53.154;18.136;2024-01-25T13:52:56;100848.58;;;3.42;100.00
25869;BME280;13688;53.154;18.136;2024-01-25T13:58:19;100864.80;;;3.36;100.00
25869;BME280;13688;53.154;18.136;2024-01-25T14:03:42;100880.11;;;3.31;100.00
25869;BME280;13688;53.154;18.136;2024-01-25T14:09:06;100883.70;;;3.30;100.00
25869;BME280;13688;53.154;18.136;2024-01-25T14:14:28;100888.34;;;3.25;100.00
25869;BME280;13688;53.154;18.136;2024-01-25T14:19:54;100901.70;;;3.24;100.00
25869;BME280;13688;53.154;18.136;2024-01-25T14:25:18;100912.33;;;3.24;100.00
25869;BME280;13688;53.154;18.136;2024-01-25T14:30:41;100917.05;;;3.17;100.00
25869;BME280;13688;53.154;18.136;2024-01-25T14:36:06;100926.95;;;3.13;100.00
25869;BME280;13688;53.154;18.136;2024-01-25T14:41:30;100944.94;;;3.07;100.00
25869;BME280;13688;53.154;18.136;2024-01-25T14:46:52;100955.92;;;2.99;100.00
25869;BME280;13688;53.154;18.136;2024-01-25T14:52:16;100968.73;;;2.90;100.00
25869;BME280;13688;53.154;18.136;2024-01-25T14:57:40;100973.50;;;2.81;100.00
25869;BME280;13688;53.154;18.136;2024-01-25T15:03:03;100981.28;;;2.64;100.00
25869;BME280;13688;53.154;18.136;2024-01-25T15:08:27;100987.96;;;2.52;100.00
25869;BME280;13688;53.154;18.136;2024-01-25T15:13:51;100991.84;;;2.44;100.00
25869;BME280;13688;53.154;18.136;2024-01-25T15:19:14;100998.38;;;2.35;100.00
25869;BME280;13688;53.154;18.136;2024-01-25T15:24:38;101002.38;;;2.23;100.00
25869;BME280;13688;53.154;18.136;2024-01-25T15:30:01;101007.20;;;2.12;100.00
25869;BME280;13688;53.154;18.136;2024-01-25T15:35:24;101008.39;;;2.05;100.00
25869;BME280;13688;53.154;18.136;2024-01-25T15:40:47;101033.21;;;2.03;100.00
25869;BME280;13688;53.154;18.136;2024-01-25T15:46:09;101039.63;;;1.97;100.00
25869;BME280;13688;53.154;18.136;2024-01-25T15:51:32;101061.00;;;1.92;100.00
25869;BME280;13688;53.154;18.136;2024-01-25T15:56:55;101070.20;;;1.82;100.00
25869;BME280;13688;53.154;18.136;2024-01-25T16:02:19;101081.97;;;1.75;100.00
25869;BME280;13688;53.154;18.136;2024-01-25T16:07:42;101085.75;;;1.68;100.00
25869;BME280;13688;53.154;18.136;2024-01-25T16:13:05;101096.95;;;1.76;100.00
25869;BME280;13688;53.154;18.136;2024-01-25T16:18:27;101090.49;;;1.83;100.00
25869;BME280;13688;53.154;18.136;2024-01-25T16:23:50;101121.03;;;1.95;100.00
25869;BME280;13688;53.154;18.136;2024-01-25T16:29:14;101120.97;;;1.96;100.00
25869;BME280;13688;53.154;18.136;2024-01-25T16:34:36;101141.00;;;2.05;100.00
25869;BME280;13688;53.154;18.136;2024-01-25T16:39:59;101148.71;;;2.11;100.00
25869;BME280;13688;53.154;18.136;2024-01-25T16:45:24;101156.67;;;2.11;100.00
25869;BME280;13688;53.154;18.136;2024-01-25T16:50:50;101172.65;;;2.10;100.00
25869;BME280;13688;53.154;18.136;2024-01-25T16:56:13;101181.47;;;2.10;100.00
25869;BME280;13688;53.154;18.136;2024-01-25T17:01:36;101197.50;;;2.07;100.00
25869;BME280;13688;53.154;18.136;2024-01-25T17:07:00;101203.78;;;2.05;100.00
25869;BME280;13688;53.154;18.136;2024-01-25T17:12:23;101201.22;;;2.01;100.00
25869;BME280;13688;53.154;18.136;2024-01-25T17:17:46;101211.02;;;1.99;100.00
25869;BME280;13688;53.154;18.136;2024-01-25T17:23:08;101224.17;;;2.03;100.00
25869;BME280;13688;53.154;18.136;2024-01-25T17:28:31;101225.20;;;1.98;100.00
25869;BME280;13688;53.154;18.136;2024-01-25T17:33:54;101227.91;;;1.97;100.00
25869;BME280;13688;53.154;18.136;2024-01-25T17:39:20;101241.23;;;1.95;100.00
25869;BME280;13688;53.154;18.136;2024-01-25T17:44:43;101248.27;;;1.96;100.00
25869;BME280;13688;53.154;18.136;2024-01-25T17:50:08;101251.78;;;1.97;100.00
25869;BME280;13688;53.154;18.136;2024-01-25T17:55:30;101258.09;;;1.93;100.00
25869;BME280;13688;53.154;18.136;2024-01-25T18:00:53;101247.28;;;1.99;100.00
25869;BME280;13688;53.154;18.136;2024-01-25T18:06:17;101257.03;;;1.98;100.00
25869;BME280;13688;53.154;18.136;2024-01-25T18:11:41;101269.42;;;1.98;100.00
25869;BME280;13688;53.154;18.136;2024-01-25T18:17:03;101275.66;;;1.97;100.00
25869;BME280;13688;53.154;18.136;2024-01-25T18:22:26;101287.82;;;2.03;100.00
25869;BME280;13688;53.154;18.136;2024-01-25T18:27:49;101298.48;;;2.01;100.00
25869;BME280;13688;53.154;18.136;2024-01-25T18:33:13;101291.39;;;2.01;100.00
25869;BME280;13688;53.154;18.136;2024-01-25T18:38:35;101289.77;;;1.97;100.00
25869;BME280;13688;53.154;18.136;2024-01-25T18:44:00;101296.98;;;1.94;100.00
25869;BME280;13688;53.154;18.136;2024-01-25T18:49:23;101300.44;;;1.96;100.00
25869;BME280;13688;53.154;18.136;2024-01-25T18:54:47;101316.35;;;1.96;100.00
25869;BME280;13688;53.154;18.136;2024-01-25T19:00:12;101319.06;;;1.94;100.00
25869;BME280;13688;53.154;18.136;2024-01-25T19:05:36;101327.94;;;1.93;100.00
25869;BME280;13688;53.154;18.136;2024-01-25T19:11:01;101313.83;;;1.91;100.00
25869;BME280;13688;53.154;18.136;2024-01-25T19:16:25;101335.10;;;1.90;100.00
25869;BME280;13688;53.154;18.136;2024-01-25T19:21:49;101332.61;;;1.85;100.00
25869;BME280;13688;53.154;18.136;2024-01-25T19:27:12;101334.47;;;1.82;100.00
25869;BME280;13688;53.154;18.136;2024-01-25T19:32:36;101339.78;;;1.82;100.00
25869;BME280;13688;53.154;18.136;2024-01-25T19:38:01;101351.36;;;1.79;100.00
25869;BME280;13688;53.154;18.136;2024-01-25T19:43:24;101348.76;;;1.78;100.00
25869;BME280;13688;53.154;18.136;2024-01-25T19:48:46;101361.25;;;1.74;100.00
25869;BME280;13688;53.154;18.136;2024-01-25T19:54:09;101377.18;;;1.72;100.00
25869;BME280;13688;53.154;18.136;2024-01-25T19:59:32;101375.39;;;1.73;100.00
25869;BME280;13688;53.154;18.136;2024-01-25T20:04:55;101352.56;;;1.69;100.00
25869;BME280;13688;53.154;18.136;2024-01-25T20:10:20;101373.61;;;1.73;100.00
25869;BME280;13688;53.154;18.136;2024-01-25T20:15:43;101390.54;;;1.69;100.00
25869;BME280;13688;53.154;18.136;2024-01-25T20:21:06;101402.83;;;1.72;100.00
25869;BME280;13688;53.154;18.136;2024-01-25T20:26:28;101406.32;;;1.74;100.00
25869;BME280;13688;53.154;18.136;2024-01-25T20:31:51;101411.75;;;1.69;100.00
25869;BME280;13688;53.154;18.136;2024-01-25T20:37:13;101419.70;;;1.69;100.00
25869;BME280;13688;53.154;18.136;2024-01-25T20:42:37;101424.13;;;1.69;100.00
25869;BME280;13688;53.154;18.136;2024-01-25T20:48:00;101421.48;;;1.69;100.00
25869;BME280;13688;53.154;18.136;2024-01-25T20:53:23;101426.84;;;1.67;100.00
25869;BME280;13688;53.154;18.136;2024-01-25T20:58:46;101417.20;;;1.65;100.00
25869;BME280;13688;53.154;18.136;2024-01-25T21:04:09;101419.87;;;1.63;100.00
25869;BME280;13688;53.154;18.136;2024-01-25T21:09:32;101428.73;;;1.62;100.00
25869;BME280;13688;53.154;18.136;2024-01-25T21:14:55;101427.11;;;1.58;100.00
25869;BME280;13688;53.154;18.136;2024-01-25T21:20:20;101444.79;;;1.58;100.00
25869;BME280;13688;53.154;18.136;2024-01-25T21:25:43;101447.44;;;1.58;100.00
25869;BME280;13688;53.154;18.136;2024-01-25T21:31:05;101461.56;;;1.58;100.00
25869;BME280;13688;53.154;18.136;2024-01-25T21:36:28;101448.42;;;1.54;100.00
25869;BME280;13688;53.154;18.136;2024-01-25T21:41:50;101448.47;;;1.52;100.00
25869;BME280;13688;53.154;18.136;2024-01-25T21:47:13;101445.83;;;1.52;100.00
25869;BME280;13688;53.154;18.136;2024-01-25T21:52:35;101447.66;;;1.50;100.00
25869;BME280;13688;53.154;18.136;2024-01-25T21:57:58;101455.66;;;1.49;100.00
25869;BME280;13688;53.154;18.136;2024-01-25T22:03:21;101455.66;;;1.49;100.00
25869;BME280;13688;53.154;18.136;2024-01-25T22:08:44;101472.53;;;1.44;100.00
25869;BME280;13688;53.154;18.136;2024-01-25T22:14:07;101469.93;;;1.43;100.00
25869;BME280;13688;53.154;18.136;2024-01-25T22:19:29;101474.31;;;1.44;100.00
25869;BME280;13688;53.154;18.136;2024-01-25T22:24:52;101497.30;;;1.43;100.00
25869;BME280;13688;53.154;18.136;2024-01-25T22:30:15;101509.77;;;1.40;100.00
25869;BME280;13688;53.154;18.136;2024-01-25T22:35:37;101500.95;;;1.39;100.00
25869;BME280;13688;53.154;18.136;2024-01-25T22:41:00;101503.56;;;1.41;100.00
25869;BME280;13688;53.154;18.136;2024-01-25T22:46:22;101509.82;;;1.38;100.00
25869;BME280;13688;53.154;18.136;2024-01-25T22:51:44;101519.45;;;1.41;100.00
25869;BME280;13688;53.154;18.136;2024-01-25T22:57:07;101525.58;;;1.43;100.00
25869;BME280;13688;53.154;18.136;2024-01-25T23:02:30;101530.06;;;1.41;100.00
25869;BME280;13688;53.154;18.136;2024-01-25T23:07:54;101532.70;;;1.41;100.00
25869;BME280;13688;53.154;18.136;2024-01-25T23:13:16;101537.09;;;1.42;100.00
25869;BME280;13688;53.154;18.136;2024-01-25T23:18:39;101543.27;;;1.42;100.00
25869;BME280;13688;53.154;18.136;2024-01-25T23:24:03;101553.03;;;1.40;100.00
25869;BME280;13688;53.154;18.136;2024-01-25T23:29:26;101547.69;;;1.42;100.00
25869;BME280;13688;53.154;18.136;2024-01-25T23:34:48;101558.29;;;1.42;100.00
25869;BME280;13688;53.154;18.136;2024-01-25T23:40:11;101560.94;;;1.42;100.00
25869;BME280;13688;53.154;18.136;2024-01-25T23:45:34;101562.72;;;1.41;100.00
25869;BME280;13688;53.154;18.136;2024-01-25T23:50:56;101567.20;;;1.39;100.00
25869;BME280;13688;53.154;18.136;2024-01-25T23:56:19;101552.22;;;1.38;100.00
